Bruin, Kentucky
Current Conditions -  °F | °C
As of 12:10 AM on Sunday 21 Dec 2014 (Local Time) from KSYM Reporting Station
Haze Haze  
Wind Chill: 32°   Ceiling: 1800
Heat Index: 32°   Visibility: 6mi
Dew Point: 27°   Wind: 0mph
Humidity: 80%   Direction: NA
Pressure: 30.3"   Gusts: NA
Location:  38.1397°N, 83.158°W
Report Text: KSYM 210510Z AUTO 00000KT 6SM BR OVC018 M00/M03 A3030 RMK AO2
Loading
Personal Weather Stations






























Interactive Weather Map New forecast layout! Learn more

10-Day Weather Forecast

Advertisements
Track Severe Weather on mobile